sensor_id;sensor_type;location;lat;lon;timestamp;P1;durP1;ratioP1;P2;durP2;ratioP2
67995;SDS011;54772;53.544;49.324;2022-08-21T00:01:05;14.63;;;6.75;;
67995;SDS011;54772;53.544;49.324;2022-08-21T00:03:39;16.55;;;8.52;;
67995;SDS011;54772;53.544;49.324;2022-08-21T00:06:06;14.07;;;7.53;;
67995;SDS011;54772;53.544;49.324;2022-08-21T00:08:33;11.02;;;7.87;;
67995;SDS011;54772;53.544;49.324;2022-08-21T00:11:00;16.87;;;8.00;;
67995;SDS011;54772;53.544;49.324;2022-08-21T00:13:28;15.90;;;7.85;;
67995;SDS011;54772;53.544;49.324;2022-08-21T00:15:54;15.02;;;7.80;;
67995;SDS011;54772;53.544;49.324;2022-08-21T00:18:21;18.87;;;7.75;;
67995;SDS011;54772;53.544;49.324;2022-08-21T00:20:48;16.15;;;8.10;;
67995;SDS011;54772;53.544;49.324;2022-08-21T00:23:15;18.30;;;7.50;;
67995;SDS011;54772;53.544;49.324;2022-08-21T00:25:42;20.90;;;7.82;;
67995;SDS011;54772;53.544;49.324;2022-08-21T00:28:09;15.68;;;6.82;;
67995;SDS011;54772;53.544;49.324;2022-08-21T00:30:36;14.82;;;7.30;;
67995;SDS011;54772;53.544;49.324;2022-08-21T00:33:03;17.25;;;8.05;;
67995;SDS011;54772;53.544;49.324;2022-08-21T00:35:32;19.15;;;6.87;;
67995;SDS011;54772;53.544;49.324;2022-08-21T00:38:01;14.38;;;6.90;;
67995;SDS011;54772;53.544;49.324;2022-08-21T00:40:30;16.37;;;7.12;;
67995;SDS011;54772;53.544;49.324;2022-08-21T00:43:05;11.05;;;6.18;;
67995;SDS011;54772;53.544;49.324;2022-08-21T00:45:33;14.15;;;6.22;;
67995;SDS011;54772;53.544;49.324;2022-08-21T00:48:00;12.40;;;6.62;;
67995;SDS011;54772;53.544;49.324;2022-08-21T00:50:28;14.35;;;7.18;;
67995;SDS011;54772;53.544;49.324;2022-08-21T00:52:57;12.77;;;5.97;;
67995;SDS011;54772;53.544;49.324;2022-08-21T00:55:25;16.85;;;6.97;;
67995;SDS011;54772;53.544;49.324;2022-08-21T00:57:54;19.67;;;6.47;;
67995;SDS011;54772;53.544;49.324;2022-08-21T01:00:27;18.90;;;7.55;;
67995;SDS011;54772;53.544;49.324;2022-08-21T01:02:57;17.58;;;6.40;;
67995;SDS011;54772;53.544;49.324;2022-08-21T01:05:25;18.15;;;7.90;;
67995;SDS011;54772;53.544;49.324;2022-08-21T01:07:53;21.33;;;8.45;;
67995;SDS011;54772;53.544;49.324;2022-08-21T01:10:22;20.45;;;8.38;;
67995;SDS011;54772;53.544;49.324;2022-08-21T01:12:50;17.27;;;7.95;;
67995;SDS011;54772;53.544;49.324;2022-08-21T01:15:18;20.08;;;8.30;;
67995;SDS011;54772;53.544;49.324;2022-08-21T01:17:45;19.87;;;8.43;;
67995;SDS011;54772;53.544;49.324;2022-08-21T01:20:13;20.30;;;8.20;;
67995;SDS011;54772;53.544;49.324;2022-08-21T01:22:39;18.48;;;9.15;;
67995;SDS011;54772;53.544;49.324;2022-08-21T01:25:07;22.60;;;8.68;;
67995;SDS011;54772;53.544;49.324;2022-08-21T01:27:36;16.00;;;8.30;;
67995;SDS011;54772;53.544;49.324;2022-08-21T01:30:14;18.10;;;8.50;;
67995;SDS011;54772;53.544;49.324;2022-08-21T01:32:46;15.18;;;8.50;;
67995;SDS011;54772;53.544;49.324;2022-08-21T01:35:13;18.83;;;8.45;;
67995;SDS011;54772;53.544;49.324;2022-08-21T01:37:41;18.37;;;8.43;;
67995;SDS011;54772;53.544;49.324;2022-08-21T01:40:08;18.12;;;7.78;;
67995;SDS011;54772;53.544;49.324;2022-08-21T01:42:35;16.10;;;7.82;;
67995;SDS011;54772;53.544;49.324;2022-08-21T01:45:02;14.20;;;7.65;;
67995;SDS011;54772;53.544;49.324;2022-08-21T01:47:30;17.65;;;8.60;;
67995;SDS011;54772;53.544;49.324;2022-08-21T01:49:58;15.07;;;8.35;;
67995;SDS011;54772;53.544;49.324;2022-08-21T01:52:24;17.23;;;8.55;;
67995;SDS011;54772;53.544;49.324;2022-08-21T01:54:51;15.27;;;8.65;;
67995;SDS011;54772;53.544;49.324;2022-08-21T01:57:17;16.62;;;8.63;;
67995;SDS011;54772;53.544;49.324;2022-08-21T01:59:44;15.10;;;8.38;;
67995;SDS011;54772;53.544;49.324;2022-08-21T02:02:11;17.20;;;8.20;;
67995;SDS011;54772;53.544;49.324;2022-08-21T02:04:37;14.50;;;7.97;;
67995;SDS011;54772;53.544;49.324;2022-08-21T02:07:04;17.50;;;7.93;;
67995;SDS011;54772;53.544;49.324;2022-08-21T02:09:31;18.10;;;8.20;;
67995;SDS011;54772;53.544;49.324;2022-08-21T02:11:59;19.35;;;8.30;;
67995;SDS011;54772;53.544;49.324;2022-08-21T02:14:25;17.12;;;8.05;;
67995;SDS011;54772;53.544;49.324;2022-08-21T02:16:52;17.17;;;7.93;;
67995;SDS011;54772;53.544;49.324;2022-08-21T02:19:19;18.87;;;7.95;;
67995;SDS011;54772;53.544;49.324;2022-08-21T02:21:45;16.65;;;7.68;;
67995;SDS011;54772;53.544;49.324;2022-08-21T02:24:12;18.35;;;8.80;;
67995;SDS011;54772;53.544;49.324;2022-08-21T02:26:38;24.95;;;8.50;;
67995;SDS011;54772;53.544;49.324;2022-08-21T02:29:05;21.25;;;7.90;;
67995;SDS011;54772;53.544;49.324;2022-08-21T02:31:32;18.80;;;7.87;;
67995;SDS011;54772;53.544;49.324;2022-08-21T02:33:59;15.52;;;8.02;;
67995;SDS011;54772;53.544;49.324;2022-08-21T02:36:26;18.35;;;7.90;;
67995;SDS011;54772;53.544;49.324;2022-08-21T02:38:52;16.67;;;8.07;;
67995;SDS011;54772;53.544;49.324;2022-08-21T02:41:20;19.98;;;7.60;;
67995;SDS011;54772;53.544;49.324;2022-08-21T02:43:47;14.65;;;7.50;;
67995;SDS011;54772;53.544;49.324;2022-08-21T02:46:16;16.33;;;8.05;;
67995;SDS011;54772;53.544;49.324;2022-08-21T02:48:44;22.30;;;8.60;;
67995;SDS011;54772;53.544;49.324;2022-08-21T02:51:13;16.48;;;8.00;;
67995;SDS011;54772;53.544;49.324;2022-08-21T02:53:44;18.20;;;7.75;;
67995;SDS011;54772;53.544;49.324;2022-08-21T02:56:15;15.82;;;7.72;;
67995;SDS011;54772;53.544;49.324;2022-08-21T02:58:44;15.20;;;7.40;;
67995;SDS011;54772;53.544;49.324;2022-08-21T03:01:12;16.45;;;8.15;;
67995;SDS011;54772;53.544;49.324;2022-08-21T03:03:40;20.42;;;8.77;;
67995;SDS011;54772;53.544;49.324;2022-08-21T03:06:08;16.58;;;8.27;;
67995;SDS011;54772;53.544;49.324;2022-08-21T03:08:37;18.67;;;8.32;;
67995;SDS011;54772;53.544;49.324;2022-08-21T03:11:04;18.62;;;8.80;;
67995;SDS011;54772;53.544;49.324;2022-08-21T03:13:31;21.25;;;7.97;;
67995;SDS011;54772;53.544;49.324;2022-08-21T03:15:58;13.90;;;7.55;;
67995;SDS011;54772;53.544;49.324;2022-08-21T03:18:26;14.68;;;7.65;;
67995;SDS011;54772;53.544;49.324;2022-08-21T03:20:52;12.75;;;7.68;;
67995;SDS011;54772;53.544;49.324;2022-08-21T03:23:19;14.15;;;7.37;;
67995;SDS011;54772;53.544;49.324;2022-08-21T03:25:46;18.67;;;8.02;;
67995;SDS011;54772;53.544;49.324;2022-08-21T03:28:15;16.17;;;8.05;;
67995;SDS011;54772;53.544;49.324;2022-08-21T03:30:44;13.20;;;8.15;;
67995;SDS011;54772;53.544;49.324;2022-08-21T03:33:12;13.02;;;7.40;;
67995;SDS011;54772;53.544;49.324;2022-08-21T03:35:39;16.48;;;8.25;;
67995;SDS011;54772;53.544;49.324;2022-08-21T03:38:06;12.98;;;8.27;;
67995;SDS011;54772;53.544;49.324;2022-08-21T03:40:33;16.27;;;8.05;;
67995;SDS011;54772;53.544;49.324;2022-08-21T03:43:00;15.00;;;8.25;;
67995;SDS011;54772;53.544;49.324;2022-08-21T03:45:26;15.55;;;8.00;;
67995;SDS011;54772;53.544;49.324;2022-08-21T03:47:55;17.85;;;8.20;;
67995;SDS011;54772;53.544;49.324;2022-08-21T03:50:24;14.55;;;8.32;;
67995;SDS011;54772;53.544;49.324;2022-08-21T03:52:51;17.50;;;8.23;;
67995;SDS011;54772;53.544;49.324;2022-08-21T03:55:18;12.32;;;7.40;;
67995;SDS011;54772;53.544;49.324;2022-08-21T03:57:45;13.73;;;7.50;;
67995;SDS011;54772;53.544;49.324;2022-08-21T04:00:12;12.88;;;7.80;;
67995;SDS011;54772;53.544;49.324;2022-08-21T04:02:40;10.95;;;7.72;;
67995;SDS011;54772;53.544;49.324;2022-08-21T04:05:09;13.18;;;7.50;;
67995;SDS011;54772;53.544;49.324;2022-08-21T04:07:36;11.48;;;6.70;;
67995;SDS011;54772;53.544;49.324;2022-08-21T04:10:04;11.70;;;6.93;;
67995;SDS011;54772;53.544;49.324;2022-08-21T04:12:31;12.63;;;7.15;;
67995;SDS011;54772;53.544;49.324;2022-08-21T04:14:58;13.55;;;7.55;;
67995;SDS011;54772;53.544;49.324;2022-08-21T04:17:26;12.63;;;7.15;;
67995;SDS011;54772;53.544;49.324;2022-08-21T04:19:53;11.23;;;6.80;;
67995;SDS011;54772;53.544;49.324;2022-08-21T04:22:20;12.32;;;7.07;;
67995;SDS011;54772;53.544;49.324;2022-08-21T04:24:47;11.70;;;7.05;;
67995;SDS011;54772;53.544;49.324;2022-08-21T04:27:14;11.05;;;6.35;;
67995;SDS011;54772;53.544;49.324;2022-08-21T04:29:41;12.32;;;6.50;;
67995;SDS011;54772;53.544;49.324;2022-08-21T04:32:08;11.35;;;6.30;;
67995;SDS011;54772;53.544;49.324;2022-08-21T04:34:34;13.05;;;6.82;;
67995;SDS011;54772;53.544;49.324;2022-08-21T04:37:01;11.35;;;7.28;;
67995;SDS011;54772;53.544;49.324;2022-08-21T04:39:28;12.68;;;7.07;;
67995;SDS011;54772;53.544;49.324;2022-08-21T04:41:54;11.10;;;7.90;;
67995;SDS011;54772;53.544;49.324;2022-08-21T04:44:22;10.95;;;6.80;;
67995;SDS011;54772;53.544;49.324;2022-08-21T04:46:48;15.07;;;7.00;;
67995;SDS011;54772;53.544;49.324;2022-08-21T04:49:15;12.40;;;7.45;;
67995;SDS011;54772;53.544;49.324;2022-08-21T04:51:42;11.45;;;7.45;;
67995;SDS011;54772;53.544;49.324;2022-08-21T04:54:10;15.18;;;9.10;;
67995;SDS011;54772;53.544;49.324;2022-08-21T04:56:51;15.10;;;8.30;;
67995;SDS011;54772;53.544;49.324;2022-08-21T04:59:26;15.10;;;9.07;;
67995;SDS011;54772;53.544;49.324;2022-08-21T05:01:59;15.50;;;8.98;;
67995;SDS011;54772;53.544;49.324;2022-08-21T05:04:26;16.92;;;9.32;;
67995;SDS011;54772;53.544;49.324;2022-08-21T05:06:56;15.95;;;9.27;;
67995;SDS011;54772;53.544;49.324;2022-08-21T05:09:25;16.80;;;9.20;;
67995;SDS011;54772;53.544;49.324;2022-08-21T05:11:53;20.08;;;11.35;;
67995;SDS011;54772;53.544;49.324;2022-08-21T05:14:20;18.95;;;10.60;;
67995;SDS011;54772;53.544;49.324;2022-08-21T05:16:47;16.15;;;9.55;;
67995;SDS011;54772;53.544;49.324;2022-08-21T05:19:14;19.90;;;10.15;;
67995;SDS011;54772;53.544;49.324;2022-08-21T05:21:41;17.87;;;10.65;;
67995;SDS011;54772;53.544;49.324;2022-08-21T05:24:09;24.70;;;11.00;;
67995;SDS011;54772;53.544;49.324;2022-08-21T05:26:36;19.92;;;10.75;;
67995;SDS011;54772;53.544;49.324;2022-08-21T05:29:04;17.35;;;9.60;;
67995;SDS011;54772;53.544;49.324;2022-08-21T05:31:31;26.35;;;11.12;;
67995;SDS011;54772;53.544;49.324;2022-08-21T05:33:57;22.08;;;11.23;;
67995;SDS011;54772;53.544;49.324;2022-08-21T05:36:24;18.85;;;10.55;;
67995;SDS011;54772;53.544;49.324;2022-08-21T05:38:51;23.38;;;11.05;;
67995;SDS011;54772;53.544;49.324;2022-08-21T05:41:17;23.08;;;10.43;;
67995;SDS011;54772;53.544;49.324;2022-08-21T05:43:44;22.33;;;11.05;;
67995;SDS011;54772;53.544;49.324;2022-08-21T05:46:11;34.55;;;14.25;;
67995;SDS011;54772;53.544;49.324;2022-08-21T05:48:37;23.00;;;12.23;;
67995;SDS011;54772;53.544;49.324;2022-08-21T05:51:09;25.12;;;12.68;;
67995;SDS011;54772;53.544;49.324;2022-08-21T05:53:38;27.30;;;11.48;;
67995;SDS011;54772;53.544;49.324;2022-08-21T05:56:05;20.77;;;9.75;;
67995;SDS011;54772;53.544;49.324;2022-08-21T05:58:34;15.82;;;8.98;;
67995;SDS011;54772;53.544;49.324;2022-08-21T06:01:02;17.62;;;9.35;;
67995;SDS011;54772;53.544;49.324;2022-08-21T06:03:31;17.33;;;9.57;;
67995;SDS011;54772;53.544;49.324;2022-08-21T06:05:59;19.62;;;9.73;;
67995;SDS011;54772;53.544;49.324;2022-08-21T06:08:26;17.08;;;8.63;;
67995;SDS011;54772;53.544;49.324;2022-08-21T06:10:54;14.45;;;8.98;;
67995;SDS011;54772;53.544;49.324;2022-08-21T06:13:22;16.15;;;9.07;;
67995;SDS011;54772;53.544;49.324;2022-08-21T06:15:49;16.77;;;9.68;;
67995;SDS011;54772;53.544;49.324;2022-08-21T06:18:16;19.12;;;10.50;;
67995;SDS011;54772;53.544;49.324;2022-08-21T06:20:43;15.93;;;9.35;;
67995;SDS011;54772;53.544;49.324;2022-08-21T06:23:10;10.35;;;7.43;;
67995;SDS011;54772;53.544;49.324;2022-08-21T06:25:37;15.15;;;10.00;;
67995;SDS011;54772;53.544;49.324;2022-08-21T06:28:05;16.58;;;8.65;;
67995;SDS011;54772;53.544;49.324;2022-08-21T06:30:33;14.40;;;9.70;;
67995;SDS011;54772;53.544;49.324;2022-08-21T06:33:01;11.73;;;7.53;;
67995;SDS011;54772;53.544;49.324;2022-08-21T06:35:28;10.23;;;7.50;;
67995;SDS011;54772;53.544;49.324;2022-08-21T06:37:56;11.60;;;6.95;;
67995;SDS011;54772;53.544;49.324;2022-08-21T06:40:23;9.68;;;6.45;;
67995;SDS011;54772;53.544;49.324;2022-08-21T06:42:50;8.98;;;5.90;;
67995;SDS011;54772;53.544;49.324;2022-08-21T06:45:16;8.20;;;5.05;;
67995;SDS011;54772;53.544;49.324;2022-08-21T06:47:43;6.55;;;5.03;;
67995;SDS011;54772;53.544;49.324;2022-08-21T06:50:10;6.47;;;4.85;;
67995;SDS011;54772;53.544;49.324;2022-08-21T06:52:38;11.25;;;5.97;;
67995;SDS011;54772;53.544;49.324;2022-08-21T06:55:05;11.18;;;5.82;;
67995;SDS011;54772;53.544;49.324;2022-08-21T06:57:33;8.25;;;5.40;;
67995;SDS011;54772;53.544;49.324;2022-08-21T07:00:00;9.30;;;5.62;;
67995;SDS011;54772;53.544;49.324;2022-08-21T07:02:28;7.72;;;5.55;;
67995;SDS011;54772;53.544;49.324;2022-08-21T07:04:54;7.57;;;5.62;;
67995;SDS011;54772;53.544;49.324;2022-08-21T07:07:21;7.72;;;5.15;;
67995;SDS011;54772;53.544;49.324;2022-08-21T07:09:48;9.07;;;5.18;;
67995;SDS011;54772;53.544;49.324;2022-08-21T07:12:14;7.43;;;4.87;;
67995;SDS011;54772;53.544;49.324;2022-08-21T07:14:41;9.68;;;5.40;;
67995;SDS011;54772;53.544;49.324;2022-08-21T07:17:08;8.27;;;4.95;;
67995;SDS011;54772;53.544;49.324;2022-08-21T07:19:34;6.87;;;5.25;;
67995;SDS011;54772;53.544;49.324;2022-08-21T07:22:01;7.70;;;5.18;;
67995;SDS011;54772;53.544;49.324;2022-08-21T07:24:28;7.25;;;5.22;;
67995;SDS011;54772;53.544;49.324;2022-08-21T07:26:55;7.53;;;5.20;;
67995;SDS011;54772;53.544;49.324;2022-08-21T07:29:22;7.10;;;5.37;;
67995;SDS011;54772;53.544;49.324;2022-08-21T07:31:48;9.63;;;4.90;;
67995;SDS011;54772;53.544;49.324;2022-08-21T07:34:15;8.75;;;5.68;;
67995;SDS011;54772;53.544;49.324;2022-08-21T07:36:42;9.00;;;5.45;;
67995;SDS011;54772;53.544;49.324;2022-08-21T07:39:08;9.43;;;5.53;;
67995;SDS011;54772;53.544;49.324;2022-08-21T07:41:35;6.85;;;5.07;;
67995;SDS011;54772;53.544;49.324;2022-08-21T07:44:02;7.05;;;4.68;;
67995;SDS011;54772;53.544;49.324;2022-08-21T07:46:29;7.80;;;4.95;;
67995;SDS011;54772;53.544;49.324;2022-08-21T07:48:56;8.32;;;5.10;;
67995;SDS011;54772;53.544;49.324;2022-08-21T07:51:23;7.15;;;5.50;;
67995;SDS011;54772;53.544;49.324;2022-08-21T07:53:53;6.18;;;5.00;;
67995;SDS011;54772;53.544;49.324;2022-08-21T07:56:21;6.87;;;5.60;;
67995;SDS011;54772;53.544;49.324;2022-08-21T07:58:48;6.93;;;5.07;;
67995;SDS011;54772;53.544;49.324;2022-08-21T08:01:15;8.85;;;5.65;;
67995;SDS011;54772;53.544;49.324;2022-08-21T08:03:41;9.98;;;4.90;;
67995;SDS011;54772;53.544;49.324;2022-08-21T08:06:08;5.50;;;4.25;;
67995;SDS011;54772;53.544;49.324;2022-08-21T08:08:38;10.15;;;4.72;;
67995;SDS011;54772;53.544;49.324;2022-08-21T08:11:05;10.05;;;5.40;;
67995;SDS011;54772;53.544;49.324;2022-08-21T08:13:42;8.95;;;5.10;;
67995;SDS011;54772;53.544;49.324;2022-08-21T08:16:13;7.97;;;4.87;;
67995;SDS011;54772;53.544;49.324;2022-08-21T08:18:40;7.15;;;4.90;;
67995;SDS011;54772;53.544;49.324;2022-08-21T08:21:08;6.55;;;5.07;;
67995;SDS011;54772;53.544;49.324;2022-08-21T08:23:35;7.00;;;4.85;;
67995;SDS011;54772;53.544;49.324;2022-08-21T08:26:02;6.40;;;4.65;;
67995;SDS011;54772;53.544;49.324;2022-08-21T08:28:29;8.10;;;4.55;;
67995;SDS011;54772;53.544;49.324;2022-08-21T08:30:57;6.32;;;4.90;;
67995;SDS011;54772;53.544;49.324;2022-08-21T08:33:24;8.40;;;4.93;;
67995;SDS011;54772;53.544;49.324;2022-08-21T08:35:51;6.15;;;4.57;;
67995;SDS011;54772;53.544;49.324;2022-08-21T08:38:18;7.25;;;5.10;;
67995;SDS011;54772;53.544;49.324;2022-08-21T08:43:35;6.80;;;4.35;;
67995;SDS011;54772;53.544;49.324;2022-08-21T08:46:03;7.95;;;4.78;;
67995;SDS011;54772;53.544;49.324;2022-08-21T08:51:39;5.93;;;4.80;;
67995;SDS011;54772;53.544;49.324;2022-08-21T08:54:17;6.82;;;4.85;;
67995;SDS011;54772;53.544;49.324;2022-08-21T08:56:58;8.13;;;4.95;;
67995;SDS011;54772;53.544;49.324;2022-08-21T08:59:26;8.75;;;5.00;;
67995;SDS011;54772;53.544;49.324;2022-08-21T09:02:02;5.82;;;4.35;;
67995;SDS011;54772;53.544;49.324;2022-08-21T09:04:29;6.50;;;4.82;;
67995;SDS011;54772;53.544;49.324;2022-08-21T09:07:09;9.60;;;5.12;;
67995;SDS011;54772;53.544;49.324;2022-08-21T09:19:04;6.65;;;5.12;;
67995;SDS011;54772;53.544;49.324;2022-08-21T09:24:49;4.95;;;3.95;;
67995;SDS011;54772;53.544;49.324;2022-08-21T09:27:19;7.40;;;5.60;;
67995;SDS011;54772;53.544;49.324;2022-08-21T09:29:49;8.77;;;5.45;;
67995;SDS011;54772;53.544;49.324;2022-08-21T09:32:21;5.85;;;4.30;;
67995;SDS011;54772;53.544;49.324;2022-08-21T09:40:39;8.40;;;5.07;;
67995;SDS011;54772;53.544;49.324;2022-08-21T09:45:40;6.28;;;4.18;;
67995;SDS011;54772;53.544;49.324;2022-08-21T09:48:08;7.18;;;4.82;;
67995;SDS011;54772;53.544;49.324;2022-08-21T09:50:36;6.30;;;4.60;;
67995;SDS011;54772;53.544;49.324;2022-08-21T09:53:03;5.80;;;4.35;;
67995;SDS011;54772;53.544;49.324;2022-08-21T09:55:47;5.72;;;4.60;;
67995;SDS011;54772;53.544;49.324;2022-08-21T09:58:36;7.00;;;4.78;;
67995;SDS011;54772;53.544;49.324;2022-08-21T10:01:05;8.30;;;4.93;;
67995;SDS011;54772;53.544;49.324;2022-08-21T10:03:32;5.47;;;4.35;;
67995;SDS011;54772;53.544;49.324;2022-08-21T10:06:08;8.07;;;4.78;;
67995;SDS011;54772;53.544;49.324;2022-08-21T10:08:37;7.12;;;4.85;;
67995;SDS011;54772;53.544;49.324;2022-08-21T10:11:07;6.55;;;4.68;;
67995;SDS011;54772;53.544;49.324;2022-08-21T10:16:15;10.02;;;5.45;;
67995;SDS011;54772;53.544;49.324;2022-08-21T10:27:42;6.40;;;4.57;;
67995;SDS011;54772;53.544;49.324;2022-08-21T10:38:38;6.68;;;5.18;;
67995;SDS011;54772;53.544;49.324;2022-08-21T10:43:52;7.43;;;4.75;;
67995;SDS011;54772;53.544;49.324;2022-08-21T10:49:14;6.68;;;5.20;;
67995;SDS011;54772;53.544;49.324;2022-08-21T10:52:00;9.52;;;4.80;;
67995;SDS011;54772;53.544;49.324;2022-08-21T10:57:27;7.32;;;4.43;;
67995;SDS011;54772;53.544;49.324;2022-08-21T11:00:17;7.00;;;4.32;;
67995;SDS011;54772;53.544;49.324;2022-08-21T11:02:57;7.75;;;5.00;;
67995;SDS011;54772;53.544;49.324;2022-08-21T11:05:42;7.15;;;4.78;;
67995;SDS011;54772;53.544;49.324;2022-08-21T11:10:57;10.05;;;5.60;;
67995;SDS011;54772;53.544;49.324;2022-08-21T11:13:44;7.37;;;4.55;;
67995;SDS011;54772;53.544;49.324;2022-08-21T11:16:24;7.47;;;4.75;;
67995;SDS011;54772;53.544;49.324;2022-08-21T11:19:20;5.30;;;3.92;;
67995;SDS011;54772;53.544;49.324;2022-08-21T11:22:18;8.77;;;4.82;;
67995;SDS011;54772;53.544;49.324;2022-08-21T11:25:14;7.07;;;4.70;;
67995;SDS011;54772;53.544;49.324;2022-08-21T11:30:36;6.25;;;4.50;;
67995;SDS011;54772;53.544;49.324;2022-08-21T11:33:17;6.25;;;4.72;;
67995;SDS011;54772;53.544;49.324;2022-08-21T11:41:54;6.30;;;4.20;;
67995;SDS011;54772;53.544;49.324;2022-08-21T11:44:37;8.05;;;3.50;;
67995;SDS011;54772;53.544;49.324;2022-08-21T11:50:20;6.87;;;4.25;;
67995;SDS011;54772;53.544;49.324;2022-08-21T11:52:55;6.30;;;4.62;;
67995;SDS011;54772;53.544;49.324;2022-08-21T11:55:24;7.93;;;5.60;;
67995;SDS011;54772;53.544;49.324;2022-08-21T11:58:05;7.15;;;5.07;;
67995;SDS011;54772;53.544;49.324;2022-08-21T12:00:38;6.95;;;4.87;;
67995;SDS011;54772;53.544;49.324;2022-08-21T12:06:06;6.57;;;5.20;;
67995;SDS011;54772;53.544;49.324;2022-08-21T12:08:44;6.70;;;4.78;;
67995;SDS011;54772;53.544;49.324;2022-08-21T12:16:33;6.65;;;4.80;;
67995;SDS011;54772;53.544;49.324;2022-08-21T12:19:27;5.82;;;4.30;;
67995;SDS011;54772;53.544;49.324;2022-08-21T12:24:34;6.55;;;4.78;;
67995;SDS011;54772;53.544;49.324;2022-08-21T12:34:48;6.32;;;4.87;;
67995;SDS011;54772;53.544;49.324;2022-08-21T12:37:47;9.48;;;5.53;;
67995;SDS011;54772;53.544;49.324;2022-08-21T12:40:28;5.70;;;4.22;;
67995;SDS011;54772;53.544;49.324;2022-08-21T12:43:06;5.57;;;4.53;;
67995;SDS011;54772;53.544;49.324;2022-08-21T12:45:44;6.20;;;4.18;;
67995;SDS011;54772;53.544;49.324;2022-08-21T12:48:14;6.18;;;4.47;;
67995;SDS011;54772;53.544;49.324;2022-08-21T12:50:56;8.40;;;5.18;;
67995;SDS011;54772;53.544;49.324;2022-08-21T12:53:30;8.18;;;4.53;;
67995;SDS011;54772;53.544;49.324;2022-08-21T12:56:08;6.90;;;4.80;;
67995;SDS011;54772;53.544;49.324;2022-08-21T12:58:35;7.22;;;4.85;;
67995;SDS011;54772;53.544;49.324;2022-08-21T13:01:12;7.22;;;5.55;;
67995;SDS011;54772;53.544;49.324;2022-08-21T13:03:54;7.20;;;5.18;;
67995;SDS011;54772;53.544;49.324;2022-08-21T13:06:24;7.80;;;5.82;;
67995;SDS011;54772;53.544;49.324;2022-08-21T13:08:54;9.57;;;6.40;;
67995;SDS011;54772;53.544;49.324;2022-08-21T13:11:23;9.20;;;6.07;;
67995;SDS011;54772;53.544;49.324;2022-08-21T13:13:50;11.85;;;6.57;;
67995;SDS011;54772;53.544;49.324;2022-08-21T13:16:22;9.13;;;6.18;;
67995;SDS011;54772;53.544;49.324;2022-08-21T13:18:56;12.32;;;6.60;;
67995;SDS011;54772;53.544;49.324;2022-08-21T13:21:29;9.43;;;6.72;;
67995;SDS011;54772;53.544;49.324;2022-08-21T13:27:00;9.15;;;5.80;;
67995;SDS011;54772;53.544;49.324;2022-08-21T13:29:29;9.07;;;5.87;;
67995;SDS011;54772;53.544;49.324;2022-08-21T13:32:01;10.75;;;5.50;;
67995;SDS011;54772;53.544;49.324;2022-08-21T13:34:30;9.85;;;6.05;;
67995;SDS011;54772;53.544;49.324;2022-08-21T13:37:03;7.75;;;5.70;;
67995;SDS011;54772;53.544;49.324;2022-08-21T13:39:31;7.82;;;5.53;;
67995;SDS011;54772;53.544;49.324;2022-08-21T13:41:59;8.82;;;5.65;;
67995;SDS011;54772;53.544;49.324;2022-08-21T13:44:33;8.43;;;5.80;;
67995;SDS011;54772;53.544;49.324;2022-08-21T13:47:02;6.40;;;4.40;;
67995;SDS011;54772;53.544;49.324;2022-08-21T13:49:31;9.38;;;5.60;;
67995;SDS011;54772;53.544;49.324;2022-08-21T13:51:59;7.45;;;5.00;;
67995;SDS011;54772;53.544;49.324;2022-08-21T13:54:37;5.47;;;4.28;;
67995;SDS011;54772;53.544;49.324;2022-08-21T13:57:15;9.18;;;5.12;;
67995;SDS011;54772;53.544;49.324;2022-08-21T13:59:43;6.30;;;3.95;;
67995;SDS011;54772;53.544;49.324;2022-08-21T14:02:11;8.05;;;4.50;;
67995;SDS011;54772;53.544;49.324;2022-08-21T14:04:44;7.25;;;5.15;;
67995;SDS011;54772;53.544;49.324;2022-08-21T14:07:19;9.23;;;5.45;;
67995;SDS011;54772;53.544;49.324;2022-08-21T14:10:00;9.85;;;5.95;;
67995;SDS011;54772;53.544;49.324;2022-08-21T14:12:29;8.75;;;5.50;;
67995;SDS011;54772;53.544;49.324;2022-08-21T14:15:09;7.53;;;5.30;;
67995;SDS011;54772;53.544;49.324;2022-08-21T14:17:39;10.25;;;4.72;;
67995;SDS011;54772;53.544;49.324;2022-08-21T14:20:07;7.05;;;4.65;;
67995;SDS011;54772;53.544;49.324;2022-08-21T14:27:31;7.45;;;4.75;;
67995;SDS011;54772;53.544;49.324;2022-08-21T14:30:00;6.62;;;5.40;;
67995;SDS011;54772;53.544;49.324;2022-08-21T14:32:39;6.87;;;5.15;;
67995;SDS011;54772;53.544;49.324;2022-08-21T14:35:06;7.57;;;5.25;;
67995;SDS011;54772;53.544;49.324;2022-08-21T14:37:33;6.43;;;4.90;;
67995;SDS011;54772;53.544;49.324;2022-08-21T14:40:00;8.95;;;4.12;;
67995;SDS011;54772;53.544;49.324;2022-08-21T14:42:28;6.72;;;4.90;;
67995;SDS011;54772;53.544;49.324;2022-08-21T14:44:56;8.20;;;5.90;;
67995;SDS011;54772;53.544;49.324;2022-08-21T14:47:25;8.10;;;5.40;;
67995;SDS011;54772;53.544;49.324;2022-08-21T14:49:53;8.65;;;5.37;;
67995;SDS011;54772;53.544;49.324;2022-08-21T14:52:20;7.95;;;5.40;;
67995;SDS011;54772;53.544;49.324;2022-08-21T14:54:48;8.50;;;6.05;;
67995;SDS011;54772;53.544;49.324;2022-08-21T14:57:14;9.18;;;5.80;;
67995;SDS011;54772;53.544;49.324;2022-08-21T14:59:41;8.50;;;6.15;;
67995;SDS011;54772;53.544;49.324;2022-08-21T15:02:09;10.63;;;6.87;;
67995;SDS011;54772;53.544;49.324;2022-08-21T15:04:35;10.27;;;7.00;;
67995;SDS011;54772;53.544;49.324;2022-08-21T15:07:02;12.30;;;7.70;;
67995;SDS011;54772;53.544;49.324;2022-08-21T15:09:29;11.60;;;8.15;;
67995;SDS011;54772;53.544;49.324;2022-08-21T15:11:57;10.98;;;6.50;;
67995;SDS011;54772;53.544;49.324;2022-08-21T15:14:26;10.70;;;6.93;;
67995;SDS011;54772;53.544;49.324;2022-08-21T15:16:54;8.55;;;6.12;;
67995;SDS011;54772;53.544;49.324;2022-08-21T15:19:21;10.05;;;7.12;;
67995;SDS011;54772;53.544;49.324;2022-08-21T15:21:48;12.30;;;7.12;;
67995;SDS011;54772;53.544;49.324;2022-08-21T15:24:15;9.20;;;6.85;;
67995;SDS011;54772;53.544;49.324;2022-08-21T15:26:42;11.25;;;7.78;;
67995;SDS011;54772;53.544;49.324;2022-08-21T15:29:09;12.70;;;7.97;;
67995;SDS011;54772;53.544;49.324;2022-08-21T15:31:36;9.63;;;6.93;;
67995;SDS011;54772;53.544;49.324;2022-08-21T15:34:19;9.75;;;7.03;;
67995;SDS011;54772;53.544;49.324;2022-08-21T15:36:46;12.65;;;7.22;;
67995;SDS011;54772;53.544;49.324;2022-08-21T15:39:13;12.32;;;7.87;;
67995;SDS011;54772;53.544;49.324;2022-08-21T15:41:40;13.48;;;8.52;;
67995;SDS011;54772;53.544;49.324;2022-08-21T15:44:06;12.40;;;9.50;;
67995;SDS011;54772;53.544;49.324;2022-08-21T15:46:36;15.27;;;9.13;;
67995;SDS011;54772;53.544;49.324;2022-08-21T15:49:03;15.65;;;7.47;;
67995;SDS011;54772;53.544;49.324;2022-08-21T15:51:30;17.55;;;8.65;;
67995;SDS011;54772;53.544;49.324;2022-08-21T15:53:58;12.37;;;7.57;;
67995;SDS011;54772;53.544;49.324;2022-08-21T15:56:32;19.37;;;8.80;;
67995;SDS011;54772;53.544;49.324;2022-08-21T15:59:04;13.88;;;8.40;;
67995;SDS011;54772;53.544;49.324;2022-08-21T16:01:38;13.10;;;8.48;;
67995;SDS011;54772;53.544;49.324;2022-08-21T16:04:04;12.65;;;7.85;;
67995;SDS011;54772;53.544;49.324;2022-08-21T16:06:32;18.30;;;9.20;;
67995;SDS011;54772;53.544;49.324;2022-08-21T16:08:59;13.75;;;8.93;;
67995;SDS011;54772;53.544;49.324;2022-08-21T16:11:26;15.45;;;8.30;;
67995;SDS011;54772;53.544;49.324;2022-08-21T16:13:53;16.55;;;9.25;;
67995;SDS011;54772;53.544;49.324;2022-08-21T16:16:22;16.33;;;9.75;;